LHBP/BUD METAR and TAF weather

Enter ICAO airport designator
Station Type Date Time Source
LHBP METAR 2020/07/05 03:00 UTC NOAA

LHBP 050300Z VRB02KT CAVOK 14/12 Q1016 NOSIG


Station Type Date Time Source
LHBP Decoded METAR 2020/07/05 03:00 UTC NOAA

Budapest / Ferihegy, Hungary (LHBP) 47-26N 019-16E 185M
Jul 04, 2020 - 11:00 PM EDT / 2020.07.05 0300 UTC
Wind: Variable at 2 MPH (2 KT):0
Visibility: greater than 7 mile(s):0
Temperature: 57 F (14 C)
Dew Point: 53 F (12 C)
Relative Humidity: 87%
Pressure (altimeter): 30.00 in. Hg (1016 hPa)
ob: LHBP 050300Z VRB02KT CAVOK 14/12 Q1016 NOSIG
cycle: 3

Station Type Date Time Source
LHBP TAF 2020/07/04 18:31 UTC NOAA

TAF LHBP 041715Z 0418/0518 VRB03KT CAVOK
BECMG 0506/0508 34007KT
BECMG 0512/0514 VRB03KT

Example: see airport list